createdAt,value
2023-01-26T00:01:18.716Z,101078.09
2023-01-26T00:03:46.567Z,101070.25
2023-01-26T00:06:17.086Z,101071.13
2023-01-26T00:08:46.427Z,101058.22
2023-01-26T00:11:16.247Z,101056.84
2023-01-26T00:13:45.314Z,101065.09
2023-01-26T00:16:14.662Z,101059.06
2023-01-26T00:18:42.859Z,101064.16
2023-01-26T00:21:14.333Z,101059.03
2023-01-26T00:23:42.245Z,101062.41
2023-01-26T00:26:11.738Z,101063.41
2023-01-26T00:28:39.132Z,101053.25
2023-01-26T00:31:11.389Z,101056.59
2023-01-26T00:33:38.838Z,101054.00
2023-01-26T00:36:06.880Z,101049.38
2023-01-26T00:38:34.842Z,101040.31
2023-01-26T00:41:02.156Z,101046.34
2023-01-26T00:43:29.942Z,101040.41
2023-01-26T00:45:57.373Z,101038.81
2023-01-26T00:48:26.276Z,101038.50
2023-01-26T00:50:54.438Z,101034.19
2023-01-26T00:53:21.877Z,101031.22
2023-01-26T00:55:49.359Z,101042.13
2023-01-26T00:58:16.836Z,101042.34
2023-01-26T01:00:44.301Z,101042.81
2023-01-26T01:03:12.344Z,101039.47
2023-01-26T01:05:41.000Z,101037.28
2023-01-26T01:08:08.458Z,101041.59
2023-01-26T01:10:35.919Z,101033.88
2023-01-26T01:13:03.710Z,101029.94
2023-01-26T01:15:31.234Z,101033.34
2023-01-26T01:17:58.606Z,101044.78
2023-01-26T01:20:26.032Z,101043.06
2023-01-26T01:22:54.755Z,101036.59
2023-01-26T01:25:22.141Z,101039.28
2023-01-26T01:27:49.594Z,101040.88
2023-01-26T01:30:17.038Z,101031.31
2023-01-26T01:32:44.895Z,101032.81
2023-01-26T01:35:12.366Z,101029.81
2023-01-26T01:37:39.813Z,101022.53
2023-01-26T01:40:13.125Z,101017.16
2023-01-26T01:42:47.694Z,101018.69
2023-01-26T01:45:38.763Z,101015.97
2023-01-26T01:48:13.391Z,101011.94
2023-01-26T01:50:41.425Z,101002.72
2023-01-26T01:53:09.959Z,100995.66
2023-01-26T01:55:38.751Z,100993.00
2023-01-26T01:58:07.961Z,100995.78
2023-01-26T02:00:35.533Z,100992.22
2023-01-26T02:03:14.623Z,101000.41
2023-01-26T02:05:49.986Z,100994.19
2023-01-26T02:08:19.176Z,100987.94
2023-01-26T02:10:51.136Z,100987.44
2023-01-26T02:13:20.526Z,100978.59
2023-01-26T02:15:49.035Z,100973.75
2023-01-26T02:18:17.582Z,100970.38
2023-01-26T02:20:47.794Z,100979.31
2023-01-26T02:23:23.246Z,100969.75
2023-01-26T02:26:02.854Z,100961.56
2023-01-26T02:28:30.886Z,100960.13
2023-01-26T02:30:58.445Z,100947.59
2023-01-26T02:33:28.220Z,100944.97
2023-01-26T02:35:55.669Z,100940.13
2023-01-26T02:38:27.100Z,100935.56
2023-01-26T02:40:57.538Z,100932.69
2023-01-26T02:43:27.783Z,100924.88
2023-01-26T02:45:55.353Z,100923.19
2023-01-26T02:48:37.534Z,100923.09
2023-01-26T02:51:05.980Z,100916.78
2023-01-26T02:53:34.010Z,100922.13
2023-01-26T02:56:00.332Z,100921.06
2023-01-26T02:58:29.505Z,100925.28
2023-01-26T03:00:57.098Z,100916.56
2023-01-26T03:03:41.393Z,100912.16
2023-01-26T03:06:10.354Z,100919.19
2023-01-26T03:08:38.837Z,100916.81
2023-01-26T03:11:07.596Z,100916.97
2023-01-26T03:13:36.621Z,100911.66
2023-01-26T03:16:08.465Z,100912.41
2023-01-26T03:18:54.161Z,100912.50
2023-01-26T03:21:39.078Z,100905.38
2023-01-26T03:24:24.942Z,100901.53
2023-01-26T03:27:09.886Z,100905.16
2023-01-26T03:29:38.638Z,100908.66
2023-01-26T03:32:06.118Z,100902.00
2023-01-26T03:34:33.829Z,100911.56
2023-01-26T03:37:01.397Z,100902.38
2023-01-26T03:39:46.746Z,100896.28
2023-01-26T03:42:32.114Z,100896.78
2023-01-26T03:45:18.751Z,100900.44
2023-01-26T03:48:04.152Z,100898.75
2023-01-26T03:50:49.469Z,100897.81
2023-01-26T03:53:37.055Z,100892.59
2023-01-26T03:56:24.029Z,100895.19
2023-01-26T03:58:52.973Z,100882.38
2023-01-26T04:01:26.248Z,100885.53
2023-01-26T04:04:12.976Z,100882.16
2023-01-26T04:06:59.648Z,100875.91
2023-01-26T04:09:27.312Z,100876.31
2023-01-26T04:11:54.979Z,100869.03
2023-01-26T04:14:50.004Z,100874.25
2023-01-26T04:17:38.022Z,100876.66
2023-01-26T04:20:24.978Z,100872.69
2023-01-26T04:22:52.729Z,100876.16
2023-01-26T04:25:22.615Z,100874.19
2023-01-26T04:27:50.212Z,100872.69
2023-01-26T04:30:18.992Z,100869.16
2023-01-26T04:32:47.767Z,100863.25
2023-01-26T04:35:15.358Z,100859.56
2023-01-26T04:37:42.777Z,100863.31
2023-01-26T04:40:11.738Z,100860.31
2023-01-26T04:42:39.299Z,100858.75
2023-01-26T04:45:07.467Z,100853.69
2023-01-26T04:47:34.927Z,100852.06
2023-01-26T04:50:03.926Z,100853.88
2023-01-26T04:52:31.356Z,100844.72
2023-01-26T04:54:58.775Z,100842.13
2023-01-26T04:57:26.285Z,100842.84
2023-01-26T04:59:54.243Z,100842.56
2023-01-26T05:02:21.601Z,100848.03
2023-01-26T05:04:49.337Z,100852.19
2023-01-26T05:07:18.121Z,100850.72
2023-01-26T05:09:45.553Z,100853.56
2023-01-26T05:12:30.436Z,100853.31
2023-01-26T05:14:57.899Z,100853.47
2023-01-26T05:17:25.411Z,100855.31
2023-01-26T05:19:53.176Z,100857.84
2023-01-26T05:22:21.886Z,100860.50
2023-01-26T05:24:49.302Z,100863.16
2023-01-26T05:27:22.531Z,100861.81
2023-01-26T05:29:50.356Z,100856.31
2023-01-26T05:32:17.880Z,100869.63
2023-01-26T05:34:45.361Z,100863.53
2023-01-26T05:37:14.997Z,100867.13
2023-01-26T05:39:44.200Z,100869.78
2023-01-26T05:42:12.643Z,100863.50
2023-01-26T05:44:40.277Z,100871.50
2023-01-26T05:47:07.661Z,100871.59
2023-01-26T05:49:35.225Z,100862.03
2023-01-26T05:52:02.636Z,100866.00
2023-01-26T05:54:29.992Z,100865.94
2023-01-26T05:56:58.690Z,100854.66
2023-01-26T05:59:26.041Z,100867.84
2023-01-26T06:01:53.522Z,100862.47
2023-01-26T06:04:21.302Z,100860.66
2023-01-26T06:06:48.695Z,100858.75
2023-01-26T06:09:16.434Z,100867.81
2023-01-26T06:11:43.837Z,100864.69
2023-01-26T06:14:12.564Z,100866.19
2023-01-26T06:16:39.999Z,100864.38
2023-01-26T06:19:07.998Z,100863.50
2023-01-26T06:21:36.098Z,100868.72
2023-01-26T06:24:04.262Z,100870.50
2023-01-26T06:26:31.823Z,100874.22
2023-01-26T06:28:59.463Z,100868.34
2023-01-26T06:31:29.664Z,100873.75
2023-01-26T06:33:57.415Z,100874.44
2023-01-26T06:36:24.987Z,100867.22
2023-01-26T06:38:55.567Z,100869.91
2023-01-26T06:41:23.831Z,100876.84
2023-01-26T06:43:51.258Z,100875.47
2023-01-26T06:46:19.420Z,100879.66
2023-01-26T06:48:48.247Z,100875.03
2023-01-26T06:51:43.423Z,100868.22
2023-01-26T06:54:12.309Z,100870.19
2023-01-26T06:56:40.004Z,100865.50
2023-01-26T06:59:09.716Z,100861.25
2023-01-26T07:01:40.098Z,100865.19
2023-01-26T07:04:09.240Z,100856.91
2023-01-26T07:06:36.622Z,100857.25
2023-01-26T07:09:04.507Z,100866.03
2023-01-26T07:11:32.712Z,100866.59
2023-01-26T07:14:00.674Z,100864.50
2023-01-26T07:16:28.278Z,100872.81
2023-01-26T07:18:55.996Z,100867.63
2023-01-26T07:21:24.906Z,100864.00
2023-01-26T07:23:53.231Z,100867.72
2023-01-26T07:26:21.961Z,100862.31
2023-01-26T07:28:49.769Z,100866.28
2023-01-26T07:31:17.321Z,100859.06
2023-01-26T07:33:44.792Z,100862.75
2023-01-26T07:36:12.189Z,100860.91
2023-01-26T07:38:40.979Z,100863.50
2023-01-26T07:41:10.893Z,100857.25
2023-01-26T07:43:39.211Z,100849.41
2023-01-26T07:46:07.312Z,100854.81
2023-01-26T07:48:34.769Z,100863.56
2023-01-26T07:51:03.901Z,100860.88
2023-01-26T07:53:34.075Z,100860.34
2023-01-26T07:56:11.525Z,100868.81
2023-01-26T07:58:39.250Z,100871.31
2023-01-26T08:01:12.104Z,100865.94
2023-01-26T08:03:39.766Z,100870.28
2023-01-26T08:06:11.682Z,100869.75
2023-01-26T08:08:41.140Z,100868.59
2023-01-26T08:11:11.548Z,100862.53
2023-01-26T08:13:39.644Z,100862.09
2023-01-26T08:16:11.982Z,100859.25
2023-01-26T08:18:39.746Z,100860.63
2023-01-26T08:21:07.194Z,100862.81
2023-01-26T08:23:34.690Z,100858.56
2023-01-26T08:26:02.376Z,100859.88
2023-01-26T08:28:31.415Z,100853.44
2023-01-26T08:31:04.748Z,100851.00
2023-01-26T08:33:33.169Z,100854.03
2023-01-26T08:36:02.773Z,100857.03
2023-01-26T08:38:32.079Z,100851.97
2023-01-26T08:40:59.611Z,100848.41
2023-01-26T08:43:27.267Z,100851.66
2023-01-26T08:45:56.389Z,100854.28
2023-01-26T08:48:23.861Z,100843.53
2023-01-26T08:50:55.278Z,100846.94
2023-01-26T08:53:23.006Z,100841.97
2023-01-26T08:55:50.467Z,100839.47
2023-01-26T08:58:18.691Z,100841.03
2023-01-26T09:00:46.140Z,100854.91
2023-01-26T09:03:14.891Z,100856.91
2023-01-26T09:05:42.353Z,100852.78
2023-01-26T09:08:13.813Z,100855.81
2023-01-26T09:10:42.527Z,100862.19
2023-01-26T09:13:10.327Z,100853.53
2023-01-26T09:15:38.936Z,100854.88
2023-01-26T09:18:06.875Z,100856.41
2023-01-26T09:20:35.641Z,100858.47
2023-01-26T09:23:03.086Z,100858.66
2023-01-26T09:25:30.739Z,100863.38
2023-01-26T09:27:58.413Z,100868.22
2023-01-26T09:30:26.094Z,100883.50
2023-01-26T09:32:53.802Z,100881.38
2023-01-26T09:35:21.186Z,100888.53
2023-01-26T09:37:49.911Z,100884.22
2023-01-26T09:40:21.006Z,100885.97
2023-01-26T09:43:01.705Z,100873.38
2023-01-26T09:45:36.684Z,100882.56
2023-01-26T09:48:13.175Z,100886.66
2023-01-26T09:50:47.354Z,100882.47
2023-01-26T09:53:21.162Z,100880.75
2023-01-26T09:55:49.807Z,100886.09
2023-01-26T09:58:22.954Z,100883.13
2023-01-26T10:00:53.665Z,100886.50
2023-01-26T10:03:29.867Z,100878.47
2023-01-26T10:06:06.425Z,100881.56
2023-01-26T10:08:35.303Z,100888.09
2023-01-26T10:11:06.094Z,100879.91
2023-01-26T10:13:35.029Z,100874.56
2023-01-26T10:16:07.519Z,100877.94
2023-01-26T10:18:41.865Z,100874.56
2023-01-26T10:21:12.047Z,100870.22
2023-01-26T10:23:48.124Z,100865.75
2023-01-26T10:26:18.460Z,100866.41
2023-01-26T10:28:47.406Z,100879.88
2023-01-26T10:31:17.897Z,100877.16
2023-01-26T10:33:52.461Z,100868.41
2023-01-26T10:36:20.090Z,100864.09
2023-01-26T10:38:51.062Z,100869.25
2023-01-26T10:41:25.566Z,100865.88
2023-01-26T10:43:55.287Z,100857.63
2023-01-26T10:46:26.199Z,100858.34
2023-01-26T10:48:54.820Z,100845.00
2023-01-26T10:51:26.887Z,100847.84
2023-01-26T10:54:29.047Z,100849.72
2023-01-26T10:56:58.901Z,100855.22
2023-01-26T10:59:30.872Z,100841.72
2023-01-26T11:02:01.914Z,100842.84
2023-01-26T11:04:29.894Z,100834.91
2023-01-26T11:07:24.808Z,100839.69
2023-01-26T11:09:53.625Z,100840.91
2023-01-26T11:12:22.997Z,100835.06
2023-01-26T11:15:03.966Z,100846.06
2023-01-26T11:17:38.163Z,100842.47
2023-01-26T11:20:28.134Z,100834.78
2023-01-26T11:23:02.590Z,100847.47
2023-01-26T11:25:37.366Z,100845.69
2023-01-26T11:28:27.765Z,100838.16
2023-01-26T11:31:11.850Z,100829.41
2023-01-26T11:33:48.042Z,100828.72
2023-01-26T11:36:25.744Z,100825.63
2023-01-26T11:39:02.865Z,100818.47
2023-01-26T11:41:45.752Z,100821.69
2023-01-26T11:44:40.639Z,100819.91
2023-01-26T11:47:23.295Z,100812.22
2023-01-26T11:50:07.313Z,100806.53
2023-01-26T11:52:42.770Z,100797.63
2023-01-26T11:55:26.614Z,100808.09
2023-01-26T11:58:06.224Z,100802.47
2023-01-26T12:00:41.143Z,100799.81
2023-01-26T12:03:20.494Z,100800.41
2023-01-26T12:05:51.122Z,100793.88
2023-01-26T12:08:23.806Z,100786.81
2023-01-26T12:11:21.204Z,100786.84
2023-01-26T12:13:57.684Z,100781.44
2023-01-26T12:16:33.951Z,100780.56
2023-01-26T12:19:11.513Z,100776.63
2023-01-26T12:21:43.554Z,100777.00
2023-01-26T12:24:43.427Z,100771.88
2023-01-26T12:27:06.952Z,100764.91
2023-01-26T12:29:43.607Z,100757.59
2023-01-26T12:32:14.066Z,100764.00
2023-01-26T12:34:41.916Z,100762.84
2023-01-26T12:37:27.201Z,100766.03
2023-01-26T12:40:06.173Z,100755.31
2023-01-26T12:42:43.383Z,100764.09
2023-01-26T12:45:18.402Z,100769.41
2023-01-26T12:47:50.947Z,100762.00
2023-01-26T12:50:27.525Z,100753.91
2023-01-26T12:52:58.701Z,100744.38
2023-01-26T12:55:30.150Z,100759.75
2023-01-26T12:58:01.720Z,100749.44
2023-01-26T13:00:34.378Z,100740.09
2023-01-26T13:03:07.902Z,100744.50
2023-01-26T13:05:37.124Z,100736.56
2023-01-26T13:08:51.324Z,100724.84
2023-01-26T13:11:44.763Z,100727.91
2023-01-26T13:14:26.646Z,100736.41
2023-01-26T13:16:55.882Z,100727.94
2023-01-26T13:19:37.278Z,100732.84
2023-01-26T13:22:04.642Z,100750.28
2023-01-26T13:24:46.800Z,100736.69
2023-01-26T13:27:31.928Z,100733.69
2023-01-26T13:30:00.082Z,100741.59
2023-01-26T13:33:05.995Z,100739.31
2023-01-26T13:35:35.971Z,100736.25
2023-01-26T13:38:12.670Z,100735.72
2023-01-26T13:40:44.727Z,100728.66
2023-01-26T13:43:26.663Z,100732.13
2023-01-26T13:46:04.949Z,100734.31
2023-01-26T13:48:44.945Z,100730.00
2023-01-26T13:51:18.709Z,100740.75
2023-01-26T13:53:50.805Z,100741.75
2023-01-26T13:56:24.261Z,100740.16
2023-01-26T13:58:52.086Z,100743.66
2023-01-26T14:01:20.858Z,100742.56
2023-01-26T14:03:49.629Z,100745.06
2023-01-26T14:06:20.814Z,100741.84
2023-01-26T14:08:53.152Z,100742.09
2023-01-26T14:11:23.596Z,100738.63
2023-01-26T14:13:55.888Z,100731.25
2023-01-26T14:16:35.621Z,100735.72
2023-01-26T14:19:16.129Z,100733.66
2023-01-26T14:21:48.760Z,100735.63
2023-01-26T14:24:16.445Z,100735.09
2023-01-26T14:26:44.556Z,100740.53
2023-01-26T14:29:13.572Z,100737.63
2023-01-26T14:31:41.298Z,100750.25
2023-01-26T14:34:11.894Z,100745.06
2023-01-26T14:36:40.032Z,100739.25
2023-01-26T14:39:17.980Z,100735.78
2023-01-26T14:41:46.561Z,100738.03
2023-01-26T14:44:14.791Z,100728.38
2023-01-26T14:46:54.287Z,100743.31
2023-01-26T14:49:28.569Z,100741.59
2023-01-26T14:51:57.926Z,100741.38
2023-01-26T14:54:29.162Z,100744.97
2023-01-26T14:56:57.532Z,100747.59
2023-01-26T14:59:29.559Z,100749.56
2023-01-26T15:02:05.467Z,100751.09
2023-01-26T15:04:39.309Z,100748.97
2023-01-26T15:07:35.237Z,100747.00
2023-01-26T15:10:03.129Z,100747.75
2023-01-26T15:12:33.883Z,100752.47
2023-01-26T15:15:02.491Z,100751.47
2023-01-26T15:17:32.000Z,100748.59
2023-01-26T15:20:00.734Z,100749.81
2023-01-26T15:22:28.340Z,100753.53
2023-01-26T15:25:06.414Z,100761.66
2023-01-26T15:27:37.583Z,100766.19
2023-01-26T15:30:07.885Z,100762.72
2023-01-26T15:32:40.854Z,100757.13
2023-01-26T15:35:19.696Z,100757.47
2023-01-26T15:37:47.106Z,100756.09
2023-01-26T15:40:15.541Z,100756.31
2023-01-26T15:42:43.400Z,100758.19
2023-01-26T15:45:24.395Z,100759.13
2023-01-26T15:47:51.823Z,100765.06
2023-01-26T15:50:27.849Z,100765.38
2023-01-26T15:52:55.848Z,100759.34
2023-01-26T15:55:27.303Z,100761.81
2023-01-26T15:57:54.702Z,100761.97
2023-01-26T16:00:23.467Z,100765.03
2023-01-26T16:02:51.620Z,100769.19
2023-01-26T16:05:22.459Z,100778.91
2023-01-26T16:07:50.962Z,100775.91
2023-01-26T16:10:18.993Z,100776.91
2023-01-26T16:12:46.963Z,100782.06
2023-01-26T16:15:26.377Z,100777.53
2023-01-26T16:17:53.763Z,100779.84
2023-01-26T16:20:22.511Z,100779.09
2023-01-26T16:22:49.875Z,100780.91
2023-01-26T16:25:23.954Z,100776.78
2023-01-26T16:27:51.465Z,100784.63
2023-01-26T16:30:19.108Z,100776.38
2023-01-26T16:32:46.514Z,100781.97
2023-01-26T16:35:15.719Z,100779.56
2023-01-26T16:37:44.953Z,100783.66
2023-01-26T16:40:16.424Z,100790.84
2023-01-26T16:42:47.339Z,100780.72
2023-01-26T16:45:17.134Z,100779.97
2023-01-26T16:47:44.858Z,100776.91
2023-01-26T16:50:12.783Z,100775.50
2023-01-26T16:52:41.969Z,100783.13
2023-01-26T16:55:14.300Z,100786.31
2023-01-26T16:57:42.409Z,100782.59
2023-01-26T17:00:13.806Z,100779.75
2023-01-26T17:02:42.864Z,100771.50
2023-01-26T17:05:15.066Z,100776.06
2023-01-26T17:07:42.518Z,100778.25
2023-01-26T17:10:13.478Z,100774.06
2023-01-26T17:12:41.126Z,100784.19
2023-01-26T17:15:11.605Z,100791.34
2023-01-26T17:17:39.169Z,100790.06
2023-01-26T17:20:18.434Z,100793.34
2023-01-26T17:22:46.983Z,100790.00
2023-01-26T17:25:17.240Z,100793.81
2023-01-26T17:27:45.206Z,100795.16
2023-01-26T17:30:13.269Z,100800.25
2023-01-26T17:32:42.468Z,100810.56
2023-01-26T17:35:10.550Z,100809.66
2023-01-26T17:37:39.321Z,100800.38
2023-01-26T17:40:09.065Z,100811.78
2023-01-26T17:42:37.901Z,100807.34
2023-01-26T17:45:09.190Z,100812.59
2023-01-26T17:47:38.621Z,100798.25
2023-01-26T17:50:06.956Z,100811.94
2023-01-26T17:52:36.465Z,100799.75
2023-01-26T17:55:06.190Z,100801.19
2023-01-26T17:57:34.027Z,100808.47
2023-01-26T18:00:02.966Z,100814.22
2023-01-26T18:02:30.500Z,100810.69
2023-01-26T18:04:57.977Z,100813.28
2023-01-26T18:07:25.585Z,100807.19
2023-01-26T18:09:52.971Z,100810.19
2023-01-26T18:12:20.394Z,100817.06
2023-01-26T18:14:48.393Z,100811.66
2023-01-26T18:17:17.239Z,100812.53
2023-01-26T18:19:44.833Z,100810.94
2023-01-26T18:22:12.295Z,100814.59
2023-01-26T18:24:39.666Z,100811.19
2023-01-26T18:27:07.534Z,100814.91
2023-01-26T18:29:34.831Z,100820.22
2023-01-26T18:32:02.307Z,100822.84
2023-01-26T18:34:31.069Z,100826.69
2023-01-26T18:36:58.754Z,100819.97
2023-01-26T18:39:27.632Z,100822.88
2023-01-26T18:41:55.010Z,100834.34
2023-01-26T18:44:22.671Z,100826.50
2023-01-26T18:46:50.049Z,100830.72
2023-01-26T18:49:17.688Z,100835.16
2023-01-26T18:51:48.164Z,100832.78
2023-01-26T18:54:16.436Z,100838.19
2023-01-26T18:56:43.968Z,100836.31
2023-01-26T18:59:12.540Z,100840.16
2023-01-26T19:01:40.617Z,100836.56
2023-01-26T19:04:08.160Z,100834.78
2023-01-26T19:06:36.405Z,100831.06
2023-01-26T19:09:07.032Z,100842.13
2023-01-26T19:11:36.696Z,100841.13
2023-01-26T19:14:06.092Z,100835.25
2023-01-26T19:16:33.937Z,100837.03
2023-01-26T19:19:01.678Z,100837.44
2023-01-26T19:21:31.305Z,100836.94
2023-01-26T19:24:02.442Z,100837.50
2023-01-26T19:26:31.396Z,100832.81
2023-01-26T19:29:00.029Z,100827.03
2023-01-26T19:31:28.400Z,100833.97
2023-01-26T19:33:57.240Z,100834.13
2023-01-26T19:36:25.533Z,100828.94
2023-01-26T19:38:53.004Z,100828.75
2023-01-26T19:41:22.027Z,100823.53
2023-01-26T19:43:51.163Z,100822.81
2023-01-26T19:46:19.449Z,100815.84
2023-01-26T19:48:47.003Z,100828.94
2023-01-26T19:51:16.090Z,100826.28
2023-01-26T19:53:45.998Z,100834.81
2023-01-26T19:56:16.612Z,100836.00
2023-01-26T19:58:44.729Z,100831.03
2023-01-26T20:01:13.715Z,100833.78
2023-01-26T20:03:41.205Z,100829.63
2023-01-26T20:06:16.065Z,100824.06
2023-01-26T20:08:43.634Z,100827.50
2023-01-26T20:11:11.763Z,100831.97
2023-01-26T20:13:40.043Z,100831.22
2023-01-26T20:16:08.186Z,100829.31
2023-01-26T20:18:38.036Z,100826.44
2023-01-26T20:21:07.188Z,100830.31
2023-01-26T20:23:36.583Z,100827.66
2023-01-26T20:26:08.669Z,100819.88
2023-01-26T20:28:36.579Z,100818.31
2023-01-26T20:31:04.600Z,100816.50
2023-01-26T20:33:32.356Z,100812.84
2023-01-26T20:36:01.335Z,100797.16
2023-01-26T20:38:28.728Z,100801.94
2023-01-26T20:40:56.097Z,100811.59
2023-01-26T20:43:23.487Z,100814.53
2023-01-26T20:45:50.906Z,100806.88
2023-01-26T20:48:18.395Z,100805.75
2023-01-26T20:50:45.797Z,100803.88
2023-01-26T20:53:14.517Z,100804.75
2023-01-26T20:55:42.354Z,100803.84
2023-01-26T20:58:09.881Z,100809.91
2023-01-26T21:00:39.146Z,100812.81
2023-01-26T21:03:06.560Z,100812.84
2023-01-26T21:05:33.905Z,100818.31
2023-01-26T21:08:01.397Z,100817.84
2023-01-26T21:10:30.108Z,100817.09
2023-01-26T21:12:57.504Z,100813.56
2023-01-26T21:15:24.849Z,100818.09
2023-01-26T21:17:52.282Z,100826.78
2023-01-26T21:20:20.157Z,100825.16
2023-01-26T21:22:47.879Z,100828.22
2023-01-26T21:25:15.409Z,100818.22
2023-01-26T21:27:44.121Z,100809.84
2023-01-26T21:30:13.164Z,100810.50
2023-01-26T21:32:40.640Z,100819.53
2023-01-26T21:35:08.786Z,100814.78
2023-01-26T21:37:36.180Z,100810.03
2023-01-26T21:40:04.143Z,100824.25
2023-01-26T21:42:31.449Z,100827.59
2023-01-26T21:45:17.653Z,100830.25
2023-01-26T21:48:05.502Z,100835.81
2023-01-26T21:50:46.864Z,100834.72
2023-01-26T21:53:14.289Z,100830.34
2023-01-26T21:55:42.180Z,100839.13
2023-01-26T21:58:27.512Z,100834.97
2023-01-26T22:01:05.880Z,100835.25
2023-01-26T22:03:33.368Z,100829.84
2023-01-26T22:06:04.178Z,100829.97
2023-01-26T22:08:32.898Z,100831.00
2023-01-26T22:11:00.268Z,100831.72
2023-01-26T22:13:28.298Z,100827.50
2023-01-26T22:16:01.933Z,100828.34
2023-01-26T22:18:31.069Z,100825.63
2023-01-26T22:20:58.452Z,100825.34
2023-01-26T22:23:25.889Z,100826.84
2023-01-26T22:25:53.279Z,100824.69
2023-01-26T22:28:20.760Z,100817.44
2023-01-26T22:30:48.300Z,100805.91
2023-01-26T22:33:17.063Z,100806.22
2023-01-26T22:35:44.432Z,100817.78
2023-01-26T22:38:11.911Z,100800.59
2023-01-26T22:40:39.380Z,100799.16
2023-01-26T22:43:08.619Z,100800.34
2023-01-26T22:45:36.097Z,100805.38
2023-01-26T22:48:03.684Z,100804.44
2023-01-26T22:50:32.387Z,100804.22
2023-01-26T22:52:59.766Z,100805.25
2023-01-26T22:55:27.121Z,100801.72
2023-01-26T22:57:54.776Z,100798.31
2023-01-26T23:00:22.283Z,100802.16
2023-01-26T23:02:49.702Z,100811.44
2023-01-26T23:05:18.035Z,100815.22
2023-01-26T23:07:46.754Z,100812.44
2023-01-26T23:10:14.414Z,100810.75
2023-01-26T23:12:41.904Z,100817.13
2023-01-26T23:15:10.294Z,100820.69
2023-01-26T23:17:37.654Z,100813.28
2023-01-26T23:20:05.730Z,100814.78
2023-01-26T23:22:33.128Z,100818.72
2023-01-26T23:25:19.393Z,100810.81
2023-01-26T23:27:46.778Z,100812.72
2023-01-26T23:30:15.038Z,100816.28
2023-01-26T23:32:42.542Z,100815.22
2023-01-26T23:35:10.392Z,100810.06
2023-01-26T23:37:37.643Z,100810.81
2023-01-26T23:40:07.984Z,100806.56
2023-01-26T23:42:45.210Z,100803.84
2023-01-26T23:45:22.695Z,100802.06
2023-01-26T23:47:50.082Z,100807.16
2023-01-26T23:50:17.799Z,100815.13
2023-01-26T23:52:45.324Z,100797.53
2023-01-26T23:55:14.486Z,100807.00
2023-01-26T23:57:41.844Z,100805.38
